sensor_id;sensor_type;location;lat;lon;timestamp;pressure;altitude;pressure_sealevel;temperature;humidity
16544;BME280;8384;47.996;7.786;2023-11-21T00:02:24;98290.84;;;7.93;100.00
16544;BME280;8384;47.996;7.786;2023-11-21T00:04:50;98301.03;;;8.03;100.00
16544;BME280;8384;47.996;7.786;2023-11-21T00:07:15;98271.09;;;7.81;100.00
16544;BME280;8384;47.996;7.786;2023-11-21T00:09:41;98282.91;;;7.92;100.00
16544;BME280;8384;47.996;7.786;2023-11-21T00:12:07;98279.41;;;7.96;100.00
16544;BME280;8384;47.996;7.786;2023-11-21T00:14:38;98258.88;;;7.84;100.00
16544;BME280;8384;47.996;7.786;2023-11-21T00:17:06;98277.03;;;8.00;100.00
16544;BME280;8384;47.996;7.786;2023-11-21T00:19:32;98263.34;;;7.95;100.00
16544;BME280;8384;47.996;7.786;2023-11-21T00:21:58;98269.50;;;8.07;100.00
16544;BME280;8384;47.996;7.786;2023-11-21T00:24:24;98282.25;;;8.07;100.00
16544;BME280;8384;47.996;7.786;2023-11-21T00:26:50;98264.16;;;7.95;100.00
16544;BME280;8384;47.996;7.786;2023-11-21T00:29:15;98270.75;;;8.00;100.00
16544;BME280;8384;47.996;7.786;2023-11-21T00:31:42;98262.84;;;7.98;100.00
16544;BME280;8384;47.996;7.786;2023-11-21T00:34:08;98260.00;;;7.88;100.00
16544;BME280;8384;47.996;7.786;2023-11-21T00:36:33;98256.13;;;8.06;100.00
16544;BME280;8384;47.996;7.786;2023-11-21T00:38:58;98261.25;;;8.02;100.00
16544;BME280;8384;47.996;7.786;2023-11-21T00:41:24;98257.19;;;7.77;100.00
16544;BME280;8384;47.996;7.786;2023-11-21T00:43:52;98256.47;;;7.87;100.00
16544;BME280;8384;47.996;7.786;2023-11-21T00:46:18;98276.91;;;7.90;100.00
16544;BME280;8384;47.996;7.786;2023-11-21T00:48:43;98232.53;;;7.62;100.00
16544;BME280;8384;47.996;7.786;2023-11-21T00:51:08;98240.06;;;7.55;100.00
16544;BME280;8384;47.996;7.786;2023-11-21T00:53:34;98251.81;;;7.60;100.00
16544;BME280;8384;47.996;7.786;2023-11-21T00:55:59;98257.13;;;7.72;100.00
16544;BME280;8384;47.996;7.786;2023-11-21T00:58:24;98253.56;;;7.72;100.00
16544;BME280;8384;47.996;7.786;2023-11-21T01:00:50;98264.06;;;7.85;100.00
16544;BME280;8384;47.996;7.786;2023-11-21T01:03:15;98258.78;;;7.73;100.00
16544;BME280;8384;47.996;7.786;2023-11-21T01:05:41;98280.03;;;7.76;100.00
16544;BME280;8384;47.996;7.786;2023-11-21T01:08:06;98272.25;;;7.85;100.00
16544;BME280;8384;47.996;7.786;2023-11-21T01:10:31;98277.50;;;7.70;100.00
16544;BME280;8384;47.996;7.786;2023-11-21T01:12:57;98268.31;;;7.76;100.00
16544;BME280;8384;47.996;7.786;2023-11-21T01:15:23;98227.50;;;7.48;100.00
16544;BME280;8384;47.996;7.786;2023-11-21T01:17:48;98266.16;;;7.78;100.00
16544;BME280;8384;47.996;7.786;2023-11-21T01:20:13;98266.84;;;7.90;100.00
16544;BME280;8384;47.996;7.786;2023-11-21T01:22:39;98268.00;;;7.94;100.00
16544;BME280;8384;47.996;7.786;2023-11-21T01:25:05;98274.03;;;8.02;100.00
16544;BME280;8384;47.996;7.786;2023-11-21T01:27:33;98282.78;;;7.81;100.00
16544;BME280;8384;47.996;7.786;2023-11-21T01:29:59;98255.81;;;7.53;100.00
16544;BME280;8384;47.996;7.786;2023-11-21T01:32:24;98257.56;;;7.86;100.00
16544;BME280;8384;47.996;7.786;2023-11-21T01:34:50;98278.06;;;7.72;100.00
16544;BME280;8384;47.996;7.786;2023-11-21T01:37:15;98284.78;;;7.64;100.00
16544;BME280;8384;47.996;7.786;2023-11-21T01:39:43;98273.09;;;7.63;100.00
16544;BME280;8384;47.996;7.786;2023-11-21T01:42:10;98265.50;;;7.65;100.00
16544;BME280;8384;47.996;7.786;2023-11-21T01:44:38;98263.22;;;7.57;100.00
16544;BME280;8384;47.996;7.786;2023-11-21T01:47:04;98268.78;;;7.68;100.00
16544;BME280;8384;47.996;7.786;2023-11-21T01:49:32;98219.34;;;7.48;100.00
16544;BME280;8384;47.996;7.786;2023-11-21T01:51:58;98241.31;;;7.69;100.00
16544;BME280;8384;47.996;7.786;2023-11-21T01:54:24;98270.16;;;7.70;100.00
16544;BME280;8384;47.996;7.786;2023-11-21T01:56:50;98277.88;;;7.78;100.00
16544;BME280;8384;47.996;7.786;2023-11-21T01:59:18;98270.59;;;7.84;100.00
16544;BME280;8384;47.996;7.786;2023-11-21T02:01:44;98269.59;;;7.90;100.00
16544;BME280;8384;47.996;7.786;2023-11-21T02:04:12;98279.97;;;7.71;100.00
16544;BME280;8384;47.996;7.786;2023-11-21T02:06:37;98271.81;;;7.71;100.00
16544;BME280;8384;47.996;7.786;2023-11-21T02:09:04;98255.69;;;7.64;100.00
16544;BME280;8384;47.996;7.786;2023-11-21T02:11:30;98275.47;;;7.82;100.00
16544;BME280;8384;47.996;7.786;2023-11-21T02:13:55;98234.56;;;7.49;100.00
16544;BME280;8384;47.996;7.786;2023-11-21T02:16:20;98266.72;;;7.80;100.00
16544;BME280;8384;47.996;7.786;2023-11-21T02:18:49;98260.78;;;7.83;100.00
16544;BME280;8384;47.996;7.786;2023-11-21T02:21:16;98238.16;;;7.77;100.00
16544;BME280;8384;47.996;7.786;2023-11-21T02:23:41;98272.88;;;7.92;100.00
16544;BME280;8384;47.996;7.786;2023-11-21T02:26:10;98270.03;;;7.82;100.00
16544;BME280;8384;47.996;7.786;2023-11-21T02:28:36;98240.09;;;7.82;100.00
16544;BME280;8384;47.996;7.786;2023-11-21T02:31:01;98265.03;;;7.74;100.00
16544;BME280;8384;47.996;7.786;2023-11-21T02:33:28;98215.97;;;7.41;100.00
16544;BME280;8384;47.996;7.786;2023-11-21T02:35:53;98265.09;;;7.57;100.00
16544;BME280;8384;47.996;7.786;2023-11-21T02:38:22;98257.78;;;7.79;100.00
16544;BME280;8384;47.996;7.786;2023-11-21T02:40:48;98269.38;;;7.75;100.00
16544;BME280;8384;47.996;7.786;2023-11-21T02:43:14;98267.94;;;7.67;100.00
16544;BME280;8384;47.996;7.786;2023-11-21T02:45:39;98252.78;;;7.71;100.00
16544;BME280;8384;47.996;7.786;2023-11-21T02:48:06;98220.34;;;7.42;100.00
16544;BME280;8384;47.996;7.786;2023-11-21T02:50:32;98263.16;;;7.52;100.00
16544;BME280;8384;47.996;7.786;2023-11-21T02:52:57;98263.66;;;7.71;100.00
16544;BME280;8384;47.996;7.786;2023-11-21T02:55:23;98258.94;;;7.89;100.00
16544;BME280;8384;47.996;7.786;2023-11-21T02:57:50;98257.22;;;7.83;100.00
16544;BME280;8384;47.996;7.786;2023-11-21T03:00:16;98239.16;;;7.71;100.00
16544;BME280;8384;47.996;7.786;2023-11-21T03:02:41;98258.00;;;7.78;100.00
16544;BME280;8384;47.996;7.786;2023-11-21T03:05:09;98257.94;;;7.73;100.00
16544;BME280;8384;47.996;7.786;2023-11-21T03:07:39;98243.97;;;7.64;100.00
16544;BME280;8384;47.996;7.786;2023-11-21T03:10:05;98257.69;;;7.74;100.00
16544;BME280;8384;47.996;7.786;2023-11-21T03:12:31;98254.09;;;7.46;100.00
16544;BME280;8384;47.996;7.786;2023-11-21T03:14:56;98247.19;;;7.61;100.00
16544;BME280;8384;47.996;7.786;2023-11-21T03:17:22;98243.97;;;7.64;100.00
16544;BME280;8384;47.996;7.786;2023-11-21T03:19:47;98244.09;;;7.74;100.00
16544;BME280;8384;47.996;7.786;2023-11-21T03:22:12;98241.19;;;7.81;100.00
16544;BME280;8384;47.996;7.786;2023-11-21T03:24:38;98224.19;;;7.46;100.00
16544;BME280;8384;47.996;7.786;2023-11-21T03:27:04;98245.91;;;7.69;100.00
16544;BME280;8384;47.996;7.786;2023-11-21T03:29:29;98245.63;;;7.65;100.00
16544;BME280;8384;47.996;7.786;2023-11-21T03:31:55;98260.56;;;7.62;100.00
16544;BME280;8384;47.996;7.786;2023-11-21T03:34:24;98251.81;;;7.60;100.00
16544;BME280;8384;47.996;7.786;2023-11-21T03:36:51;98256.41;;;7.82;100.00
16544;BME280;8384;47.996;7.786;2023-11-21T03:39:16;98249.28;;;7.76;100.00
16544;BME280;8384;47.996;7.786;2023-11-21T03:41:41;98251.53;;;7.84;100.00
16544;BME280;8384;47.996;7.786;2023-11-21T03:44:06;98251.56;;;7.62;100.00
16544;BME280;8384;47.996;7.786;2023-11-21T03:46:32;98260.00;;;7.60;100.00
16544;BME280;8384;47.996;7.786;2023-11-21T03:48:57;98256.84;;;7.46;100.00
16544;BME280;8384;47.996;7.786;2023-11-21T03:51:22;98258.00;;;7.56;100.00
16544;BME280;8384;47.996;7.786;2023-11-21T03:53:47;98244.94;;;7.53;100.00
16544;BME280;8384;47.996;7.786;2023-11-21T03:56:13;98238.00;;;7.40;100.00
16544;BME280;8384;47.996;7.786;2023-11-21T03:58:39;98249.81;;;7.50;100.00
16544;BME280;8384;47.996;7.786;2023-11-21T04:01:04;98243.47;;;7.45;100.00
16544;BME280;8384;47.996;7.786;2023-11-21T04:03:29;98251.59;;;7.40;100.00
16544;BME280;8384;47.996;7.786;2023-11-21T04:05:55;98256.06;;;7.51;100.00
16544;BME280;8384;47.996;7.786;2023-11-21T04:08:20;98254.78;;;7.59;100.00
16544;BME280;8384;47.996;7.786;2023-11-21T04:10:45;98256.13;;;7.56;100.00
16544;BME280;8384;47.996;7.786;2023-11-21T04:13:10;98253.72;;;7.60;100.00
16544;BME280;8384;47.996;7.786;2023-11-21T04:15:36;98216.53;;;7.21;100.00
16544;BME280;8384;47.996;7.786;2023-11-21T04:18:01;98258.84;;;7.34;100.00
16544;BME280;8384;47.996;7.786;2023-11-21T04:20:26;98255.19;;;7.45;100.00
16544;BME280;8384;47.996;7.786;2023-11-21T04:22:52;98262.19;;;7.41;100.00
16544;BME280;8384;47.996;7.786;2023-11-21T04:25:17;98270.78;;;7.33;100.00
16544;BME280;8384;47.996;7.786;2023-11-21T04:27:43;98275.41;;;7.32;100.00
16544;BME280;8384;47.996;7.786;2023-11-21T04:30:13;98268.84;;;7.28;100.00
16544;BME280;8384;47.996;7.786;2023-11-21T04:32:39;98281.22;;;7.41;100.00
16544;BME280;8384;47.996;7.786;2023-11-21T04:35:04;98283.50;;;7.27;100.00
16544;BME280;8384;47.996;7.786;2023-11-21T04:37:30;98290.66;;;7.33;100.00
16544;BME280;8384;47.996;7.786;2023-11-21T04:39:55;98277.28;;;7.32;100.00
16544;BME280;8384;47.996;7.786;2023-11-21T04:42:21;98285.78;;;7.35;100.00
16544;BME280;8384;47.996;7.786;2023-11-21T04:44:47;98278.47;;;7.19;100.00
16544;BME280;8384;47.996;7.786;2023-11-21T04:47:12;98292.88;;;7.37;100.00
16544;BME280;8384;47.996;7.786;2023-11-21T04:49:39;98297.47;;;7.36;100.00
16544;BME280;8384;47.996;7.786;2023-11-21T04:52:05;98303.13;;;7.52;100.00
16544;BME280;8384;47.996;7.786;2023-11-21T04:54:32;98301.09;;;7.64;100.00
16544;BME280;8384;47.996;7.786;2023-11-21T04:56:57;98306.84;;;7.45;100.00
16544;BME280;8384;47.996;7.786;2023-11-21T04:59:23;98309.00;;;7.43;100.00
16544;BME280;8384;47.996;7.786;2023-11-21T05:01:53;98301.72;;;7.49;100.00
16544;BME280;8384;47.996;7.786;2023-11-21T05:04:18;98314.94;;;7.40;100.00
16544;BME280;8384;47.996;7.786;2023-11-21T05:06:44;98295.38;;;7.21;100.00
16544;BME280;8384;47.996;7.786;2023-11-21T05:09:09;98316.44;;;7.31;100.00
16544;BME280;8384;47.996;7.786;2023-11-21T05:11:37;98309.44;;;7.18;100.00
16544;BME280;8384;47.996;7.786;2023-11-21T05:14:03;98328.91;;;7.27;100.00
16544;BME280;8384;47.996;7.786;2023-11-21T05:16:29;98315.53;;;7.25;100.00
16544;BME280;8384;47.996;7.786;2023-11-21T05:18:54;98327.25;;;7.26;100.00
16544;BME280;8384;47.996;7.786;2023-11-21T05:21:25;98304.56;;;6.98;100.00
16544;BME280;8384;47.996;7.786;2023-11-21T05:23:50;98335.34;;;7.20;100.00
16544;BME280;8384;47.996;7.786;2023-11-21T05:26:16;98316.97;;;7.11;100.00
16544;BME280;8384;47.996;7.786;2023-11-21T05:28:41;98314.84;;;6.96;100.00
16544;BME280;8384;47.996;7.786;2023-11-21T05:31:06;98302.56;;;7.10;100.00
16544;BME280;8384;47.996;7.786;2023-11-21T05:33:31;98287.50;;;6.85;100.00
16544;BME280;8384;47.996;7.786;2023-11-21T05:35:58;98323.59;;;6.98;100.00
16544;BME280;8384;47.996;7.786;2023-11-21T05:38:23;98312.88;;;6.74;100.00
16544;BME280;8384;47.996;7.786;2023-11-21T05:40:49;98328.16;;;7.14;100.00
16544;BME280;8384;47.996;7.786;2023-11-21T05:43:14;98338.63;;;6.88;100.00
16544;BME280;8384;47.996;7.786;2023-11-21T05:45:40;98338.47;;;6.95;100.00
16544;BME280;8384;47.996;7.786;2023-11-21T05:48:05;98312.22;;;6.84;100.00
16544;BME280;8384;47.996;7.786;2023-11-21T05:50:31;98323.56;;;6.64;100.00
16544;BME280;8384;47.996;7.786;2023-11-21T05:52:57;98350.00;;;7.02;100.00
16544;BME280;8384;47.996;7.786;2023-11-21T05:55:25;98354.59;;;7.02;100.00
16544;BME280;8384;47.996;7.786;2023-11-21T05:57:51;98330.00;;;6.74;100.00
16544;BME280;8384;47.996;7.786;2023-11-21T06:00:16;98364.75;;;6.89;100.00
16544;BME280;8384;47.996;7.786;2023-11-21T06:02:49;98359.38;;;6.78;100.00
16544;BME280;8384;47.996;7.786;2023-11-21T06:05:23;98363.00;;;7.00;100.00
16544;BME280;8384;47.996;7.786;2023-11-21T06:07:50;98356.34;;;6.91;100.00
16544;BME280;8384;47.996;7.786;2023-11-21T06:10:15;98364.56;;;6.79;100.00
16544;BME280;8384;47.996;7.786;2023-11-21T06:12:43;98357.84;;;6.82;100.00
16544;BME280;8384;47.996;7.786;2023-11-21T06:15:09;98362.75;;;7.02;100.00
16544;BME280;8384;47.996;7.786;2023-11-21T06:17:37;98340.78;;;6.86;100.00
16544;BME280;8384;47.996;7.786;2023-11-21T06:20:03;98371.66;;;7.14;100.00
16544;BME280;8384;47.996;7.786;2023-11-21T06:22:45;98334.69;;;6.79;100.00
16544;BME280;8384;47.996;7.786;2023-11-21T06:25:12;98360.47;;;6.94;100.00
16544;BME280;8384;47.996;7.786;2023-11-21T06:27:39;98362.75;;;7.02;100.00
16544;BME280;8384;47.996;7.786;2023-11-21T06:30:05;98355.59;;;6.79;100.00
16544;BME280;8384;47.996;7.786;2023-11-21T06:32:35;98377.50;;;6.89;100.00
16544;BME280;8384;47.996;7.786;2023-11-21T06:35:02;98342.50;;;6.58;100.00
16544;BME280;8384;47.996;7.786;2023-11-21T06:37:29;98364.25;;;6.93;100.00
16544;BME280;8384;47.996;7.786;2023-11-21T06:39:56;98359.41;;;7.12;100.00
16544;BME280;8384;47.996;7.786;2023-11-21T06:42:23;98363.09;;;7.05;100.00
16544;BME280;8384;47.996;7.786;2023-11-21T06:44:49;98364.56;;;6.96;100.00
16544;BME280;8384;47.996;7.786;2023-11-21T06:47:16;98353.47;;;6.98;100.00
16544;BME280;8384;47.996;7.786;2023-11-21T06:49:43;98328.53;;;6.84;100.00
16544;BME280;8384;47.996;7.786;2023-11-21T06:52:09;98370.66;;;7.03;100.00
16544;BME280;8384;47.996;7.786;2023-11-21T06:54:34;98378.25;;;7.18;100.00
16544;BME280;8384;47.996;7.786;2023-11-21T06:57:00;98381.06;;;7.07;100.00
16544;BME280;8384;47.996;7.786;2023-11-21T06:59:25;98385.25;;;6.97;100.00
16544;BME280;8384;47.996;7.786;2023-11-21T07:01:51;98379.63;;;7.04;100.00
16544;BME280;8384;47.996;7.786;2023-11-21T07:04:16;98362.03;;;7.07;100.00
16544;BME280;8384;47.996;7.786;2023-11-21T07:06:41;98384.09;;;7.10;100.00
16544;BME280;8384;47.996;7.786;2023-11-21T07:09:08;98384.84;;;7.23;100.00
16544;BME280;8384;47.996;7.786;2023-11-21T07:11:37;98378.75;;;7.15;100.00
16544;BME280;8384;47.996;7.786;2023-11-21T07:14:03;98389.25;;;7.29;100.00
16544;BME280;8384;47.996;7.786;2023-11-21T07:16:34;98387.28;;;7.07;100.00
16544;BME280;8384;47.996;7.786;2023-11-21T07:19:02;98371.47;;;7.04;100.00
16544;BME280;8384;47.996;7.786;2023-11-21T07:21:32;98378.56;;;7.22;100.00
16544;BME280;8384;47.996;7.786;2023-11-21T07:23:57;98393.81;;;7.23;100.00
16544;BME280;8384;47.996;7.786;2023-11-21T07:26:23;98409.53;;;7.21;100.00
16544;BME280;8384;47.996;7.786;2023-11-21T07:28:49;98400.13;;;7.29;100.00
16544;BME280;8384;47.996;7.786;2023-11-21T07:31:14;98412.81;;;7.06;100.00
16544;BME280;8384;47.996;7.786;2023-11-21T07:33:40;98404.91;;;6.87;100.00
16544;BME280;8384;47.996;7.786;2023-11-21T07:36:05;98410.59;;;7.03;100.00
16544;BME280;8384;47.996;7.786;2023-11-21T07:38:32;98411.25;;;7.27;100.00
16544;BME280;8384;47.996;7.786;2023-11-21T07:40:58;98423.63;;;7.18;100.00
16544;BME280;8384;47.996;7.786;2023-11-21T07:43:26;98413.59;;;7.18;100.00
16544;BME280;8384;47.996;7.786;2023-11-21T07:45:52;98423.13;;;7.21;100.00
16544;BME280;8384;47.996;7.786;2023-11-21T07:48:17;98404.75;;;7.11;100.00
16544;BME280;8384;47.996;7.786;2023-11-21T07:50:42;98417.03;;;7.31;100.00
16544;BME280;8384;47.996;7.786;2023-11-21T07:53:08;98414.00;;;7.27;100.00
16544;BME280;8384;47.996;7.786;2023-11-21T07:55:34;98399.25;;;7.06;100.00
16544;BME280;8384;47.996;7.786;2023-11-21T07:58:01;98398.66;;;7.04;100.00
16544;BME280;8384;47.996;7.786;2023-11-21T08:00:26;98398.47;;;7.45;100.00
16544;BME280;8384;47.996;7.786;2023-11-21T08:02:55;98415.34;;;7.64;100.00
16544;BME280;8384;47.996;7.786;2023-11-21T08:05:20;98421.47;;;7.37;100.00
16544;BME280;8384;47.996;7.786;2023-11-21T08:07:46;98410.84;;;7.53;100.00
16544;BME280;8384;47.996;7.786;2023-11-21T08:10:11;98428.72;;;7.65;100.00
16544;BME280;8384;47.996;7.786;2023-11-21T08:12:36;98433.41;;;7.70;100.00
16544;BME280;8384;47.996;7.786;2023-11-21T08:15:02;98424.00;;;7.61;100.00
16544;BME280;8384;47.996;7.786;2023-11-21T08:17:28;98435.63;;;7.73;100.00
16544;BME280;8384;47.996;7.786;2023-11-21T08:19:54;98394.41;;;7.64;100.00
16544;BME280;8384;47.996;7.786;2023-11-21T08:22:20;98426.03;;;8.10;100.00
16544;BME280;8384;47.996;7.786;2023-11-21T08:24:45;98444.50;;;8.08;100.00
16544;BME280;8384;47.996;7.786;2023-11-21T08:27:12;98428.66;;;7.83;100.00
16544;BME280;8384;47.996;7.786;2023-11-21T08:29:40;98456.22;;;8.31;100.00
16544;BME280;8384;47.996;7.786;2023-11-21T08:32:06;98453.56;;;8.36;100.00
16544;BME280;8384;47.996;7.786;2023-11-21T08:34:31;98459.91;;;8.64;100.00
16544;BME280;8384;47.996;7.786;2023-11-21T08:36:56;98457.09;;;8.81;100.00
16544;BME280;8384;47.996;7.786;2023-11-21T08:39:22;98452.16;;;8.78;100.00
16544;BME280;8384;47.996;7.786;2023-11-21T08:41:50;98450.59;;;8.60;100.00
16544;BME280;8384;47.996;7.786;2023-11-21T08:44:16;98451.44;;;8.60;100.00
16544;BME280;8384;47.996;7.786;2023-11-21T08:46:46;98443.28;;;8.65;100.00
16544;BME280;8384;47.996;7.786;2023-11-21T08:49:12;98443.06;;;8.67;100.00
16544;BME280;8384;47.996;7.786;2023-11-21T08:51:37;98449.22;;;8.84;100.00
16544;BME280;8384;47.996;7.786;2023-11-21T08:54:03;98442.34;;;8.77;100.00
16544;BME280;8384;47.996;7.786;2023-11-21T08:56:32;98463.81;;;9.00;100.00
16544;BME280;8384;47.996;7.786;2023-11-21T08:58:58;98459.03;;;9.13;100.00
16544;BME280;8384;47.996;7.786;2023-11-21T09:01:25;98451.72;;;9.19;100.00
16544;BME280;8384;47.996;7.786;2023-11-21T09:03:51;98467.44;;;9.39;100.00
16544;BME280;8384;47.996;7.786;2023-11-21T09:06:16;98474.63;;;9.50;100.00
16544;BME280;8384;47.996;7.786;2023-11-21T09:08:41;98456.59;;;9.49;100.00
16544;BME280;8384;47.996;7.786;2023-11-21T09:11:08;98475.34;;;9.78;100.00
16544;BME280;8384;47.996;7.786;2023-11-21T09:13:33;98469.00;;;9.67;100.00
16544;BME280;8384;47.996;7.786;2023-11-21T09:16:00;98468.91;;;9.52;100.00
16544;BME280;8384;47.996;7.786;2023-11-21T09:18:25;98483.31;;;9.47;100.00
16544;BME280;8384;47.996;7.786;2023-11-21T09:20:50;98472.75;;;9.56;100.00
16544;BME280;8384;47.996;7.786;2023-11-21T09:23:16;98482.22;;;9.48;99.77
16544;BME280;8384;47.996;7.786;2023-11-21T09:25:41;98482.13;;;9.33;99.50
16544;BME280;8384;47.996;7.786;2023-11-21T09:28:06;98463.69;;;9.50;97.43
16544;BME280;8384;47.996;7.786;2023-11-21T09:30:35;98504.72;;;9.60;97.41
16544;BME280;8384;47.996;7.786;2023-11-21T09:33:01;98498.94;;;9.57;97.41
16544;BME280;8384;47.996;7.786;2023-11-21T09:35:27;98500.06;;;9.61;99.27
16544;BME280;8384;47.996;7.786;2023-11-21T09:37:53;98500.06;;;9.61;100.00
16544;BME280;8384;47.996;7.786;2023-11-21T09:40:21;98506.50;;;9.82;100.00
16544;BME280;8384;47.996;7.786;2023-11-21T09:42:56;98506.13;;;10.06;97.81
16544;BME280;8384;47.996;7.786;2023-11-21T09:45:26;98514.94;;;9.75;99.68
16544;BME280;8384;47.996;7.786;2023-11-21T09:47:56;98512.56;;;9.52;100.00
16544;BME280;8384;47.996;7.786;2023-11-21T09:50:23;98508.16;;;9.18;100.00
16544;BME280;8384;47.996;7.786;2023-11-21T09:53:11;98515.75;;;9.43;100.00
16544;BME280;8384;47.996;7.786;2023-11-21T09:55:44;98517.63;;;9.38;100.00
16544;BME280;8384;47.996;7.786;2023-11-21T09:58:10;98499.22;;;8.95;100.00
16544;BME280;8384;47.996;7.786;2023-11-21T10:00:43;98525.44;;;9.02;100.00
16544;BME280;8384;47.996;7.786;2023-11-21T10:03:09;98479.63;;;8.71;100.00
16544;BME280;8384;47.996;7.786;2023-11-21T10:05:35;98513.13;;;8.72;100.00
16544;BME280;8384;47.996;7.786;2023-11-21T10:08:02;98522.38;;;8.70;100.00
16544;BME280;8384;47.996;7.786;2023-11-21T10:10:30;98530.53;;;8.93;100.00
16544;BME280;8384;47.996;7.786;2023-11-21T10:12:57;98532.34;;;8.82;95.96
16544;BME280;8384;47.996;7.786;2023-11-21T10:15:28;98526.19;;;8.69;95.56
16544;BME280;8384;47.996;7.786;2023-11-21T10:17:55;98522.28;;;8.60;96.73
16544;BME280;8384;47.996;7.786;2023-11-21T10:20:24;98532.69;;;8.46;100.00
16544;BME280;8384;47.996;7.786;2023-11-21T10:22:50;98511.72;;;8.47;100.00
16544;BME280;8384;47.996;7.786;2023-11-21T10:25:16;98497.44;;;8.39;100.00
16544;BME280;8384;47.996;7.786;2023-11-21T10:27:47;98494.63;;;8.29;100.00
16544;BME280;8384;47.996;7.786;2023-11-21T10:30:12;98536.97;;;8.59;100.00
16544;BME280;8384;47.996;7.786;2023-11-21T10:32:42;98532.59;;;8.58;100.00
16544;BME280;8384;47.996;7.786;2023-11-21T10:35:08;98533.22;;;8.65;100.00
16544;BME280;8384;47.996;7.786;2023-11-21T10:37:36;98526.44;;;8.68;100.00
16544;BME280;8384;47.996;7.786;2023-11-21T10:40:06;98535.81;;;8.77;100.00
16544;BME280;8384;47.996;7.786;2023-11-21T10:42:32;98539.16;;;8.84;100.00
16544;BME280;8384;47.996;7.786;2023-11-21T10:44:57;98530.44;;;9.10;100.00
16544;BME280;8384;47.996;7.786;2023-11-21T10:47:23;98530.25;;;9.49;100.00
16544;BME280;8384;47.996;7.786;2023-11-21T10:49:49;98523.47;;;9.52;100.00
16544;BME280;8384;47.996;7.786;2023-11-21T10:52:14;98507.50;;;9.06;100.00
16544;BME280;8384;47.996;7.786;2023-11-21T10:54:43;98504.28;;;9.14;100.00
16544;BME280;8384;47.996;7.786;2023-11-21T10:57:10;98519.81;;;9.41;100.00
16544;BME280;8384;47.996;7.786;2023-11-21T10:59:35;98531.28;;;8.88;100.00
16544;BME280;8384;47.996;7.786;2023-11-21T11:02:04;98526.75;;;8.72;100.00
16544;BME280;8384;47.996;7.786;2023-11-21T11:04:36;98529.97;;;8.68;100.00
16544;BME280;8384;47.996;7.786;2023-11-21T11:07:04;98509.91;;;8.35;100.00
16544;BME280;8384;47.996;7.786;2023-11-21T11:09:31;98500.81;;;8.47;100.00
16544;BME280;8384;47.996;7.786;2023-11-21T11:12:01;98506.97;;;8.37;100.00
16544;BME280;8384;47.996;7.786;2023-11-21T11:14:27;98516.09;;;8.48;100.00
16544;BME280;8384;47.996;7.786;2023-11-21T11:16:54;98533.91;;;8.78;100.00
16544;BME280;8384;47.996;7.786;2023-11-21T11:19:20;98532.53;;;8.53;100.00
16544;BME280;8384;47.996;7.786;2023-11-21T11:27:44;98529.59;;;8.60;100.00
16544;BME280;8384;47.996;7.786;2023-11-21T11:30:25;98533.19;;;8.43;100.00
16544;BME280;8384;47.996;7.786;2023-11-21T11:33:14;98542.50;;;8.47;100.00
16544;BME280;8384;47.996;7.786;2023-11-21T11:36:00;98521.28;;;8.49;100.00
16544;BME280;8384;47.996;7.786;2023-11-21T11:38:31;98520.28;;;8.55;100.00
16544;BME280;8384;47.996;7.786;2023-11-21T11:41:01;98517.59;;;8.38;100.00
16544;BME280;8384;47.996;7.786;2023-11-21T11:43:28;98534.97;;;8.32;100.00
16544;BME280;8384;47.996;7.786;2023-11-21T11:45:57;98539.31;;;7.94;100.00
16544;BME280;8384;47.996;7.786;2023-11-21T11:48:24;98539.88;;;7.96;100.00
16544;BME280;8384;47.996;7.786;2023-11-21T11:51:10;98528.59;;;8.04;100.00
16544;BME280;8384;47.996;7.786;2023-11-21T11:53:41;98539.41;;;8.21;100.00
16544;BME280;8384;47.996;7.786;2023-11-21T11:56:20;98546.47;;;8.39;100.00
16544;BME280;8384;47.996;7.786;2023-11-21T11:58:51;98541.38;;;8.43;100.00
16544;BME280;8384;47.996;7.786;2023-11-21T12:01:18;98537.16;;;8.35;100.00
16544;BME280;8384;47.996;7.786;2023-11-21T12:03:44;98547.75;;;8.32;100.00
16544;BME280;8384;47.996;7.786;2023-11-21T12:06:09;98526.50;;;8.11;100.00
16544;BME280;8384;47.996;7.786;2023-11-21T12:08:37;98524.84;;;8.10;100.00
16544;BME280;8384;47.996;7.786;2023-11-21T12:11:02;98540.41;;;8.32;100.00
16544;BME280;8384;47.996;7.786;2023-11-21T12:13:28;98553.19;;;8.32;100.00
16544;BME280;8384;47.996;7.786;2023-11-21T12:15:53;98537.53;;;8.22;100.00
16544;BME280;8384;47.996;7.786;2023-11-21T12:18:20;98538.13;;;8.46;100.00
16544;BME280;8384;47.996;7.786;2023-11-21T12:20:46;98536.72;;;8.44;100.00
16544;BME280;8384;47.996;7.786;2023-11-21T12:23:14;98536.91;;;8.37;100.00
16544;BME280;8384;47.996;7.786;2023-11-21T12:25:41;98541.84;;;8.57;100.00
16544;BME280;8384;47.996;7.786;2023-11-21T12:28:07;98539.34;;;8.33;100.00
16544;BME280;8384;47.996;7.786;2023-11-21T12:30:34;98521.78;;;8.46;100.00
16544;BME280;8384;47.996;7.786;2023-11-21T12:33:01;98525.75;;;8.78;100.00
16544;BME280;8384;47.996;7.786;2023-11-21T12:35:28;98544.97;;;8.93;100.00
16544;BME280;8384;47.996;7.786;2023-11-21T12:37:55;98543.31;;;9.14;100.00
16544;BME280;8384;47.996;7.786;2023-11-21T12:40:24;98542.06;;;9.00;100.00
16544;BME280;8384;47.996;7.786;2023-11-21T12:42:52;98545.34;;;9.02;100.00
16544;BME280;8384;47.996;7.786;2023-11-21T12:45:19;98553.16;;;8.93;100.00
16544;BME280;8384;47.996;7.786;2023-11-21T12:50:12;98525.47;;;8.79;100.00
16544;BME280;8384;47.996;7.786;2023-11-21T12:52:41;98512.44;;;8.59;100.00
16544;BME280;8384;47.996;7.786;2023-11-21T12:55:06;98546.78;;;8.82;100.00
16544;BME280;8384;47.996;7.786;2023-11-21T12:57:34;98523.28;;;8.54;100.00
16544;BME280;8384;47.996;7.786;2023-11-21T13:00:03;98544.75;;;8.50;100.00
16544;BME280;8384;47.996;7.786;2023-11-21T13:02:36;98541.66;;;8.86;100.00
16544;BME280;8384;47.996;7.786;2023-11-21T13:05:03;98541.03;;;9.06;100.00
16544;BME280;8384;47.996;7.786;2023-11-21T13:07:41;98524.44;;;9.08;100.00
16544;BME280;8384;47.996;7.786;2023-11-21T13:10:12;98551.94;;;9.06;100.00
16544;BME280;8384;47.996;7.786;2023-11-21T13:12:43;98543.03;;;9.16;100.00
16544;BME280;8384;47.996;7.786;2023-11-21T13:15:09;98550.09;;;9.39;100.00
16544;BME280;8384;47.996;7.786;2023-11-21T13:17:35;98544.00;;;9.32;100.00
16544;BME280;8384;47.996;7.786;2023-11-21T13:20:00;98560.72;;;9.36;100.00